createdAt,value
2022-12-17T00:04:51.334Z,1013.72
2022-12-17T00:09:50.648Z,1013.82
2022-12-17T00:14:48.807Z,1013.81
2022-12-17T00:19:49.007Z,1013.90
2022-12-17T00:24:48.199Z,1013.92
2022-12-17T00:29:47.433Z,1013.96
2022-12-17T00:34:46.620Z,1014.05
2022-12-17T00:39:44.797Z,1014.11
2022-12-17T00:44:42.985Z,1014.25
2022-12-17T00:49:44.180Z,1014.33
2022-12-17T00:54:42.418Z,1014.36
2022-12-17T00:59:41.717Z,1014.51
2022-12-17T01:04:42.017Z,1014.58
2022-12-17T01:09:40.296Z,1014.65
2022-12-17T01:14:39.654Z,1014.74
2022-12-17T01:19:38.744Z,1014.82
2022-12-17T01:24:39.086Z,1014.85
2022-12-17T01:29:37.229Z,1014.98
2022-12-17T01:34:37.536Z,1014.98
2022-12-17T01:39:35.844Z,1015.07
2022-12-17T01:44:36.001Z,1015.10
2022-12-17T01:49:35.323Z,1015.11
2022-12-17T01:54:34.638Z,1015.15
2022-12-17T01:59:31.947Z,1015.30
2022-12-17T02:04:32.267Z,1015.32
2022-12-17T02:09:32.638Z,1015.29
2022-12-17T02:14:30.757Z,1015.33
2022-12-17T02:19:31.040Z,1015.34
2022-12-17T02:24:29.291Z,1015.38
2022-12-17T02:29:29.579Z,1015.32
2022-12-17T02:34:26.896Z,1015.32
2022-12-17T02:39:27.201Z,1015.27
2022-12-17T02:44:26.507Z,1015.39
2022-12-17T02:49:25.790Z,1015.40
2022-12-17T02:54:25.098Z,1015.36
2022-12-17T02:59:25.364Z,1015.44
2022-12-17T03:04:23.635Z,1015.50
2022-12-17T03:09:23.936Z,1015.60
2022-12-17T03:14:22.224Z,1015.63
2022-12-17T03:19:22.523Z,1015.60
2022-12-17T03:24:21.859Z,1015.67
2022-12-17T03:29:21.958Z,1015.68
2022-12-17T03:34:19.245Z,1015.67
2022-12-17T03:39:19.575Z,1015.69
2022-12-17T03:44:17.881Z,1015.71
2022-12-17T03:49:18.199Z,1015.80
2022-12-17T03:54:17.500Z,1015.82
2022-12-17T03:59:16.802Z,1015.83
2022-12-17T04:04:15.130Z,1015.85
2022-12-17T04:09:14.405Z,1015.82
2022-12-17T04:14:13.740Z,1015.88
2022-12-17T04:19:13.010Z,1015.99
2022-12-17T04:24:13.314Z,1015.95
2022-12-17T04:29:12.567Z,1015.97
2022-12-17T04:34:10.853Z,1016.11
2022-12-17T04:39:11.162Z,1016.16
2022-12-17T04:44:09.466Z,1016.29
2022-12-17T04:49:10.761Z,1016.29
2022-12-17T04:54:09.064Z,1016.39
2022-12-17T04:59:10.507Z,1016.43
2022-12-17T05:04:08.602Z,1016.47
2022-12-17T05:09:05.925Z,1016.52
2022-12-17T05:14:05.066Z,1016.53
2022-12-17T05:19:04.413Z,1016.54
2022-12-17T05:24:03.583Z,1016.65
2022-12-17T05:29:02.710Z,1016.64
2022-12-17T05:34:02.855Z,1016.75
2022-12-17T05:39:01.153Z,1016.77
2022-12-17T05:44:00.464Z,1016.79
2022-12-17T05:48:59.806Z,1016.85
2022-12-17T05:53:57.952Z,1016.92
2022-12-17T05:58:58.064Z,1016.89
2022-12-17T06:03:57.408Z,1017.01
2022-12-17T06:08:56.748Z,1017.01
2022-12-17T06:13:56.839Z,1017.01
2022-12-17T06:18:56.163Z,1017.05
2022-12-17T06:23:55.478Z,1017.12
2022-12-17T06:28:53.810Z,1017.27
2022-12-17T06:33:52.950Z,1017.16
2022-12-17T06:38:53.303Z,1017.10
2022-12-17T06:43:51.440Z,1017.05
2022-12-17T06:48:51.744Z,1017.16
2022-12-17T06:53:50.050Z,1017.26
2022-12-17T06:58:49.442Z,1017.32
2022-12-17T07:03:50.565Z,1017.33
2022-12-17T07:08:47.918Z,1017.37
2022-12-17T07:14:01.804Z,1017.35
2022-12-17T07:18:46.258Z,1017.32
2022-12-17T07:23:45.607Z,1017.37
2022-12-17T07:28:46.941Z,1017.50
2022-12-17T07:33:44.196Z,1017.49
2022-12-17T07:38:43.508Z,1017.59
2022-12-17T07:43:47.016Z,1017.58
2022-12-17T07:48:42.967Z,1017.74
2022-12-17T07:53:41.268Z,1017.78
2022-12-17T07:58:41.607Z,1017.75
2022-12-17T08:03:41.515Z,1017.88
2022-12-17T08:08:39.071Z,1017.91
2022-12-17T08:13:39.578Z,1018.06
2022-12-17T08:18:37.585Z,1018.13
2022-12-17T08:23:37.282Z,1018.20
2022-12-17T08:28:52.380Z,1018.18
2022-12-17T08:33:36.559Z,1018.26
2022-12-17T08:38:35.451Z,1018.37
2022-12-17T08:43:34.841Z,1018.44
2022-12-17T08:48:33.782Z,1018.55
2022-12-17T08:53:35.052Z,1018.51
2022-12-17T08:58:31.407Z,1018.54
2022-12-17T09:03:30.748Z,1018.63
2022-12-17T09:08:28.866Z,1018.68
2022-12-17T09:13:30.168Z,1018.77
2022-12-17T09:18:30.489Z,1018.79
2022-12-17T09:23:27.798Z,1018.96
2022-12-17T09:28:28.074Z,1019.01
2022-12-17T09:33:26.362Z,1019.04
2022-12-17T09:38:25.670Z,1019.07
2022-12-17T09:43:24.975Z,1019.12
2022-12-17T09:48:29.491Z,1019.15
2022-12-17T09:53:23.496Z,1019.24
2022-12-17T09:58:22.618Z,1019.13
2022-12-17T10:03:23.026Z,1019.20
2022-12-17T10:08:21.220Z,1019.15
2022-12-17T10:13:21.554Z,1019.03
2022-12-17T10:18:19.921Z,1019.09
2022-12-17T10:23:20.056Z,1019.05
2022-12-17T10:28:18.385Z,1019.01
2022-12-17T10:33:15.738Z,1019.05
2022-12-17T10:38:16.863Z,1018.96
2022-12-17T10:43:17.155Z,1019.01
2022-12-17T10:48:16.449Z,1018.97
2022-12-17T10:53:15.686Z,1019.05
2022-12-17T10:58:13.907Z,1019.05
2022-12-17T11:03:12.332Z,1019.02
2022-12-17T11:08:12.390Z,1019.00
2022-12-17T11:13:13.626Z,1019.00
2022-12-17T11:18:12.771Z,1018.99
2022-12-17T11:23:09.948Z,1018.95
2022-12-17T11:28:10.141Z,1018.89
2022-12-17T11:33:09.303Z,1018.88
2022-12-17T11:38:08.517Z,1018.86
2022-12-17T11:43:06.714Z,1018.87
2022-12-17T11:48:07.886Z,1018.86
2022-12-17T11:53:05.043Z,1018.87
2022-12-17T11:58:04.237Z,1018.95
2022-12-17T12:03:03.554Z,1019.01
2022-12-17T12:08:03.645Z,1019.00
2022-12-17T12:13:00.810Z,1018.93
2022-12-17T12:18:00.996Z,1019.00
2022-12-17T12:23:00.185Z,1019.00
2022-12-17T12:27:59.515Z,1019.05
2022-12-17T12:32:59.713Z,1019.02
2022-12-17T12:37:57.895Z,1019.01
2022-12-17T12:42:57.069Z,1019.03
2022-12-17T12:47:57.248Z,1018.98
2022-12-17T12:52:55.408Z,1018.94
2022-12-17T12:57:54.576Z,1019.02
2022-12-17T13:02:54.864Z,1019.00
2022-12-17T13:07:52.906Z,1019.05
2022-12-17T13:12:52.088Z,1019.04
2022-12-17T13:17:51.307Z,1019.03
2022-12-17T13:22:52.542Z,1019.06
2022-12-17T13:27:49.732Z,1019.03
2022-12-17T13:32:49.942Z,1019.15
2022-12-17T13:37:49.139Z,1019.19
2022-12-17T13:42:46.362Z,1019.23
2022-12-17T13:47:48.564Z,1019.31
2022-12-17T13:52:46.784Z,1019.43
2022-12-17T13:57:44.979Z,1019.30
2022-12-17T14:02:44.320Z,1019.41
2022-12-17T14:07:43.339Z,1019.36
2022-12-17T14:12:42.541Z,1019.47
2022-12-17T14:17:41.780Z,1019.46
2022-12-17T14:22:47.667Z,1019.51
2022-12-17T14:27:42.235Z,1019.68
2022-12-17T14:32:39.413Z,1019.65
2022-12-17T14:37:40.572Z,1019.80
2022-12-17T14:42:36.743Z,1019.83
2022-12-17T14:47:37.930Z,1019.81
2022-12-17T14:52:36.106Z,1019.79
2022-12-17T14:57:36.256Z,1019.77
2022-12-17T15:02:35.567Z,1019.68
2022-12-17T15:07:33.751Z,1019.76
2022-12-17T15:12:32.901Z,1019.78
2022-12-17T15:17:34.088Z,1019.86
2022-12-17T15:22:31.235Z,1019.83
2022-12-17T15:27:30.400Z,1019.88
2022-12-17T15:32:29.566Z,1019.94
2022-12-17T15:37:29.753Z,1019.99
2022-12-17T15:42:27.931Z,1019.94
2022-12-17T15:47:29.098Z,1019.98
2022-12-17T15:52:26.254Z,1019.96
2022-12-17T15:57:25.416Z,1020.00
2022-12-17T16:02:24.733Z,1020.07
2022-12-17T16:07:23.798Z,1020.14
2022-12-17T16:12:22.968Z,1020.14
2022-12-17T16:17:22.151Z,1020.22
2022-12-17T16:22:22.317Z,1020.14
2022-12-17T16:27:21.490Z,1020.16
2022-12-17T16:32:19.672Z,1020.09
2022-12-17T16:37:19.832Z,1020.12
2022-12-17T16:42:18.013Z,1020.17
2022-12-17T16:47:17.284Z,1020.17
2022-12-17T16:52:16.539Z,1020.14
2022-12-17T16:57:16.747Z,1020.15
2022-12-17T17:02:14.126Z,1020.23
2022-12-17T17:07:14.165Z,1020.21
2022-12-17T17:12:13.340Z,1020.12
2022-12-17T17:17:14.548Z,1020.28
2022-12-17T17:22:11.716Z,1020.27
2022-12-17T17:27:11.905Z,1020.36
2022-12-17T17:32:11.328Z,1020.35
2022-12-17T17:37:09.275Z,1020.45
2022-12-17T17:42:09.497Z,1020.42
2022-12-17T17:47:07.824Z,1020.49
2022-12-17T17:52:09.974Z,1020.53
2022-12-17T17:57:08.216Z,1020.54
2022-12-17T18:02:05.436Z,1020.60
2022-12-17T18:12:03.988Z,1020.66
2022-12-17T18:17:03.169Z,1020.66
2022-12-17T18:22:02.511Z,1020.68
2022-12-17T18:27:01.722Z,1020.81
2022-12-17T18:32:01.807Z,1020.83
2022-12-17T18:37:02.239Z,1020.86
2022-12-17T18:42:00.270Z,1020.83
2022-12-17T18:46:58.502Z,1020.79
2022-12-17T18:51:57.713Z,1020.80
2022-12-17T18:57:02.059Z,1020.91
2022-12-17T19:01:55.304Z,1020.83
2022-12-17T19:06:56.625Z,1020.96
2022-12-17T19:11:54.625Z,1021.03
2022-12-17T19:16:54.186Z,1021.04
2022-12-17T19:21:53.387Z,1021.14
2022-12-17T19:26:53.433Z,1021.03
2022-12-17T19:31:52.697Z,1021.12
2022-12-17T19:36:50.958Z,1021.17
2022-12-17T19:41:51.102Z,1021.12
2022-12-17T19:46:50.489Z,1021.08
2022-12-17T19:51:49.511Z,1021.22
2022-12-17T19:56:49.692Z,1021.22
2022-12-17T20:01:48.318Z,1021.36
2022-12-17T20:06:46.179Z,1021.38
2022-12-17T20:11:44.468Z,1021.39
2022-12-17T20:16:44.802Z,1021.39
2022-12-17T20:21:44.086Z,1021.44
2022-12-17T20:26:43.946Z,1021.48
2022-12-17T20:31:49.392Z,1021.55
2022-12-17T20:36:41.677Z,1021.49
2022-12-17T20:41:41.033Z,1021.92
2022-12-17T20:46:41.415Z,1021.93
2022-12-17T20:51:40.766Z,1021.93
2022-12-17T20:56:43.154Z,1021.89
2022-12-17T21:01:36.922Z,1021.82
2022-12-17T21:06:37.227Z,1021.95
2022-12-17T21:11:36.267Z,1022.03
2022-12-17T21:16:36.568Z,1021.75
2022-12-17T21:21:34.798Z,1021.66
2022-12-17T21:26:33.225Z,1021.72
2022-12-17T21:31:33.306Z,1021.67
2022-12-17T21:36:32.594Z,1021.66
2022-12-17T21:41:31.807Z,1021.66
2022-12-17T21:46:32.156Z,1021.64
2022-12-17T21:51:31.310Z,1021.59
2022-12-17T21:56:29.559Z,1021.65
2022-12-17T22:01:29.139Z,1021.71
2022-12-17T22:06:34.912Z,1021.74
2022-12-17T22:11:27.345Z,1021.67
2022-12-17T22:16:27.597Z,1021.75
2022-12-17T22:21:25.795Z,1021.71
2022-12-17T22:26:24.990Z,1021.74
2022-12-17T22:31:24.178Z,1021.76
2022-12-17T22:38:37.151Z,1021.85
2022-12-17T22:44:37.107Z,1021.86
2022-12-17T22:46:21.863Z,1021.90
2022-12-17T22:51:27.443Z,1021.93
2022-12-17T22:56:34.073Z,1021.97
2022-12-17T23:01:23.148Z,1021.98
2022-12-17T23:06:19.862Z,1022.03
2022-12-17T23:11:17.058Z,1021.93
2022-12-17T23:16:19.324Z,1021.92
2022-12-17T23:21:16.551Z,1021.94
2022-12-17T23:26:15.732Z,1021.94
2022-12-17T23:31:14.950Z,1021.90
2022-12-17T23:36:15.119Z,1021.87
2022-12-17T23:41:14.311Z,1021.72
2022-12-17T23:46:13.697Z,1021.77
2022-12-17T23:51:12.845Z,1021.74
2022-12-17T23:56:12.158Z,1021.80
